createdAt,value
2018-08-17T00:00:06.513Z,6.53
2018-08-17T00:02:34.818Z,6.50
2018-08-17T00:05:03.203Z,6.77
2018-08-17T00:07:31.498Z,6.47
2018-08-17T00:09:59.808Z,6.37
2018-08-17T00:12:28.116Z,6.40
2018-08-17T00:14:56.440Z,7.00
2018-08-17T00:17:24.712Z,6.77
2018-08-17T00:19:53.000Z,6.80
2018-08-17T00:22:21.285Z,6.20
2018-08-17T00:24:49.583Z,6.63
2018-08-17T00:27:17.842Z,6.70
2018-08-17T00:29:46.169Z,6.47
2018-08-17T00:32:14.480Z,6.47
2018-08-17T00:34:42.751Z,5.70
2018-08-17T00:37:11.032Z,5.67
2018-08-17T00:39:39.301Z,6.37
2018-08-17T00:42:07.601Z,6.20
2018-08-17T00:44:35.880Z,5.90
2018-08-17T00:47:04.212Z,6.00
2018-08-17T00:49:32.484Z,6.13
2018-08-17T00:52:00.764Z,6.03
2018-08-17T00:54:29.032Z,5.67
2018-08-17T00:56:57.317Z,5.70
2018-08-17T00:59:25.589Z,6.37
2018-08-17T01:01:53.878Z,6.23
2018-08-17T01:04:22.162Z,5.80
2018-08-17T01:06:50.447Z,6.80
2018-08-17T01:09:18.744Z,6.20
2018-08-17T01:11:47.028Z,6.50
2018-08-17T01:14:15.344Z,6.07
2018-08-17T01:16:43.637Z,6.33
2018-08-17T01:19:11.913Z,6.33
2018-08-17T01:21:40.203Z,6.40
2018-08-17T01:24:08.521Z,6.70
2018-08-17T01:26:36.800Z,6.57
2018-08-17T01:29:05.105Z,6.50
2018-08-17T01:31:33.397Z,6.40
2018-08-17T01:34:01.684Z,6.80
2018-08-17T01:36:30.001Z,6.67
2018-08-17T01:38:58.272Z,6.20
2018-08-17T01:41:26.576Z,6.23
2018-08-17T01:43:54.861Z,6.00
2018-08-17T01:46:23.168Z,6.17
2018-08-17T01:48:51.446Z,6.30
2018-08-17T01:51:19.729Z,5.90
2018-08-17T01:53:48.000Z,6.60
2018-08-17T01:56:16.285Z,6.20
2018-08-17T01:58:44.565Z,6.40
2018-08-17T02:01:12.837Z,6.50
2018-08-17T02:03:41.136Z,5.93
2018-08-17T02:06:09.437Z,6.27
2018-08-17T02:08:37.717Z,6.20
2018-08-17T02:11:06.020Z,6.93
2018-08-17T02:13:34.301Z,6.17
2018-08-17T02:16:02.568Z,6.43
2018-08-17T02:18:30.843Z,7.17
2018-08-17T02:20:59.112Z,6.70
2018-08-17T02:23:27.395Z,7.03
2018-08-17T02:25:55.682Z,6.57
2018-08-17T02:28:24.092Z,6.50
2018-08-17T02:30:52.386Z,6.20
2018-08-17T02:33:20.678Z,6.70
2018-08-17T02:35:48.949Z,6.37
2018-08-17T02:38:17.471Z,6.30
2018-08-17T02:40:45.869Z,6.23
2018-08-17T02:43:14.163Z,5.93
2018-08-17T02:45:42.469Z,6.40
2018-08-17T02:48:10.769Z,6.50
2018-08-17T02:50:39.102Z,6.37
2018-08-17T02:53:07.745Z,6.63
2018-08-17T02:55:36.057Z,6.33
2018-08-17T02:58:04.414Z,6.40
2018-08-17T03:00:32.700Z,6.37
2018-08-17T03:03:00.992Z,5.97
2018-08-17T03:05:29.269Z,6.60
2018-08-17T03:07:57.582Z,6.13
2018-08-17T03:10:25.873Z,6.97
2018-08-17T03:12:54.133Z,6.50
2018-08-17T03:15:22.408Z,5.97
2018-08-17T03:17:50.683Z,6.30
2018-08-17T03:20:18.978Z,6.60
2018-08-17T03:22:47.263Z,6.77
2018-08-17T03:25:17.492Z,7.00
2018-08-17T03:27:45.769Z,6.90
2018-08-17T03:30:14.058Z,6.07
2018-08-17T03:32:42.356Z,6.63
2018-08-17T03:35:10.665Z,6.23
2018-08-17T03:37:38.956Z,5.93
2018-08-17T03:40:07.300Z,6.13
2018-08-17T03:42:35.573Z,6.43
2018-08-17T03:45:03.948Z,5.93
2018-08-17T03:47:32.226Z,6.20
2018-08-17T03:50:00.500Z,6.17
2018-08-17T03:52:28.775Z,6.87
2018-08-17T03:54:57.064Z,6.57
2018-08-17T03:57:25.333Z,5.67
2018-08-17T03:59:53.614Z,6.50
2018-08-17T04:02:21.893Z,6.30
2018-08-17T04:04:50.188Z,5.83
2018-08-17T04:07:18.464Z,6.63
2018-08-17T04:09:46.756Z,6.40
2018-08-17T04:12:15.081Z,6.00
2018-08-17T04:14:43.364Z,6.47
2018-08-17T04:17:11.642Z,6.40
2018-08-17T04:19:39.921Z,5.83
2018-08-17T04:22:08.208Z,6.03
2018-08-17T04:24:36.512Z,5.77
2018-08-17T04:27:04.816Z,5.53
2018-08-17T04:29:33.116Z,6.20
2018-08-17T04:32:01.393Z,6.20
2018-08-17T04:34:29.656Z,5.57
2018-08-17T04:36:57.956Z,6.00
2018-08-17T04:39:26.220Z,5.97
2018-08-17T04:41:54.516Z,6.27
2018-08-17T04:44:22.781Z,6.00
2018-08-17T04:46:51.072Z,5.60
2018-08-17T04:49:19.359Z,5.43
2018-08-17T04:51:47.660Z,5.50
2018-08-17T04:54:15.941Z,5.90
2018-08-17T04:56:44.231Z,5.70
2018-08-17T04:59:12.525Z,5.80
2018-08-17T05:01:40.864Z,5.50
2018-08-17T05:04:09.156Z,5.83
2018-08-17T05:06:37.424Z,5.43
2018-08-17T05:09:06.749Z,5.80
2018-08-17T05:11:35.148Z,6.13
2018-08-17T05:14:03.485Z,5.73
2018-08-17T05:16:31.779Z,6.17
2018-08-17T05:19:00.089Z,5.67
2018-08-17T05:21:28.447Z,5.60
2018-08-17T05:23:56.961Z,5.80
2018-08-17T05:26:25.348Z,6.00
2018-08-17T05:28:53.720Z,5.57
2018-08-17T05:31:22.155Z,5.20
2018-08-17T05:33:50.517Z,5.90
2018-08-17T05:36:19.007Z,5.90
2018-08-17T05:38:47.373Z,5.70
2018-08-17T05:41:15.717Z,5.97
2018-08-17T05:43:44.100Z,5.40
2018-08-17T05:46:12.377Z,5.10
2018-08-17T05:48:40.693Z,5.67
2018-08-17T05:51:09.016Z,5.07
2018-08-17T05:53:37.397Z,5.10
2018-08-17T05:56:05.889Z,5.20
2018-08-17T05:58:34.297Z,5.83
2018-08-17T06:01:02.660Z,4.87
2018-08-17T06:03:31.354Z,4.50
2018-08-17T06:05:59.737Z,5.10
2018-08-17T06:08:28.176Z,4.70
2018-08-17T06:10:56.644Z,4.60
2018-08-17T06:13:24.952Z,4.67
2018-08-17T06:15:53.365Z,4.80
2018-08-17T06:18:21.728Z,5.33
2018-08-17T06:20:50.062Z,5.00
2018-08-17T06:23:18.330Z,4.83
2018-08-17T06:25:46.641Z,4.57
2018-08-17T06:28:14.898Z,4.90
2018-08-17T06:30:43.233Z,4.63
2018-08-17T06:33:11.584Z,4.30
2018-08-17T06:35:39.913Z,4.00
2018-08-17T06:38:08.221Z,5.10
2018-08-17T06:40:36.496Z,4.93
2018-08-17T06:43:04.813Z,4.00
2018-08-17T06:45:33.076Z,4.00
2018-08-17T06:48:01.378Z,4.90
2018-08-17T06:50:29.671Z,4.07
2018-08-17T06:52:57.966Z,4.37
2018-08-17T06:55:26.246Z,4.43
2018-08-17T06:57:54.516Z,4.27
2018-08-17T07:00:22.804Z,4.23
2018-08-17T07:02:51.121Z,4.57
2018-08-17T07:05:19.435Z,4.60
2018-08-17T07:07:47.715Z,4.47
2018-08-17T07:10:16.011Z,4.40
2018-08-17T07:12:44.330Z,4.97
2018-08-17T07:15:12.681Z,4.80
2018-08-17T07:17:41.506Z,4.93
2018-08-17T07:20:11.581Z,4.50
2018-08-17T07:22:40.009Z,4.93
2018-08-17T07:25:08.598Z,4.90
2018-08-17T07:27:37.261Z,4.83
2018-08-17T07:30:07.029Z,5.00
2018-08-17T07:32:35.329Z,4.97
2018-08-17T07:35:03.830Z,5.03
2018-08-17T07:37:32.092Z,4.90
2018-08-17T07:40:00.445Z,4.93
2018-08-17T07:42:28.705Z,4.40
2018-08-17T07:44:57.035Z,4.90
2018-08-17T07:47:25.292Z,5.07
2018-08-17T07:49:53.579Z,4.80
2018-08-17T07:52:21.849Z,4.83
2018-08-17T07:54:50.122Z,4.93
2018-08-17T07:57:18.409Z,4.77
2018-08-17T07:59:46.758Z,4.80
2018-08-17T08:02:15.069Z,5.13
2018-08-17T08:04:43.360Z,4.67
2018-08-17T08:07:11.660Z,4.57
2018-08-17T08:09:39.944Z,4.70
2018-08-17T08:12:08.285Z,4.40
2018-08-17T08:14:36.611Z,4.10
2018-08-17T08:17:04.933Z,4.20
2018-08-17T08:19:33.249Z,4.60
2018-08-17T08:22:01.649Z,4.33
2018-08-17T08:24:30.950Z,4.80
2018-08-17T08:26:59.241Z,7.33
2018-08-17T08:29:27.553Z,4.70
2018-08-17T08:31:55.868Z,8.00
2018-08-17T08:34:24.121Z,27.10
2018-08-17T08:36:52.476Z,14.77
2018-08-17T08:39:20.793Z,25.80
2018-08-17T08:41:49.182Z,4.87
2018-08-17T08:44:17.586Z,5.00
2018-08-17T08:46:45.920Z,4.60
2018-08-17T08:49:14.225Z,5.17
2018-08-17T08:51:42.579Z,5.17
2018-08-17T08:54:10.933Z,5.07
2018-08-17T08:56:39.213Z,5.50
2018-08-17T08:59:07.517Z,5.10
2018-08-17T09:01:35.973Z,5.00
2018-08-17T09:04:04.304Z,5.40
2018-08-17T09:06:32.612Z,5.27
2018-08-17T09:09:01.004Z,4.87
2018-08-17T09:11:29.273Z,4.77
2018-08-17T09:13:57.600Z,4.87
2018-08-17T09:16:25.885Z,4.53
2018-08-17T09:18:54.257Z,4.50
2018-08-17T09:21:22.548Z,4.50
2018-08-17T09:23:50.856Z,4.33
2018-08-17T09:26:19.203Z,4.50
2018-08-17T09:28:47.506Z,4.30
2018-08-17T09:31:15.797Z,4.77
2018-08-17T09:33:44.076Z,4.40
2018-08-17T09:36:12.376Z,4.07
2018-08-17T09:38:40.732Z,4.30
2018-08-17T09:41:08.996Z,4.30
2018-08-17T09:43:37.333Z,4.47
2018-08-17T09:46:05.736Z,4.90
2018-08-17T09:48:34.115Z,4.20
2018-08-17T09:51:02.424Z,4.13
2018-08-17T09:53:31.080Z,4.40
2018-08-17T09:55:59.592Z,4.07
2018-08-17T09:58:28.499Z,4.17
2018-08-17T10:01:02.597Z,5.10
2018-08-17T10:03:36.441Z,5.40
2018-08-17T10:06:10.192Z,4.30
2018-08-17T10:08:44.097Z,4.20
2018-08-17T10:11:12.752Z,4.53
2018-08-17T10:13:41.552Z,3.90
2018-08-17T10:16:10.324Z,4.07
2018-08-17T10:18:45.379Z,4.23
2018-08-17T10:21:15.433Z,4.70
2018-08-17T10:23:43.751Z,4.10
2018-08-17T10:26:12.410Z,4.17
2018-08-17T10:28:41.014Z,4.20
2018-08-17T10:31:09.820Z,4.00
2018-08-17T10:33:38.116Z,4.07
2018-08-17T10:36:06.433Z,4.30
2018-08-17T10:38:34.722Z,3.60
2018-08-17T10:41:03.029Z,3.77
2018-08-17T10:43:31.352Z,3.60
2018-08-17T10:45:59.837Z,3.83
2018-08-17T10:48:28.148Z,3.80
2018-08-17T10:50:56.919Z,3.53
2018-08-17T10:53:28.612Z,3.53
2018-08-17T10:55:56.936Z,3.57
2018-08-17T10:58:25.217Z,4.00
2018-08-17T11:00:53.480Z,3.60
2018-08-17T11:03:21.832Z,4.00
2018-08-17T11:05:50.162Z,3.37
2018-08-17T11:08:18.467Z,3.60
2018-08-17T11:10:46.761Z,3.40
2018-08-17T11:13:15.088Z,3.00
2018-08-17T11:15:43.387Z,3.20
2018-08-17T11:18:11.716Z,3.00
2018-08-17T11:20:40.019Z,3.60
2018-08-17T11:23:08.308Z,2.93
2018-08-17T11:25:36.628Z,2.90
2018-08-17T11:28:04.966Z,2.97
2018-08-17T11:30:33.236Z,3.27
2018-08-17T11:33:01.609Z,3.67
2018-08-17T11:35:29.970Z,3.20
2018-08-17T11:37:58.306Z,3.23
2018-08-17T11:40:26.587Z,3.37
2018-08-17T11:42:54.901Z,3.30
2018-08-17T11:45:24.427Z,3.37
2018-08-17T11:47:53.540Z,3.40
2018-08-17T11:50:23.398Z,3.27
2018-08-17T11:52:53.163Z,3.17
2018-08-17T11:55:22.468Z,2.93
2018-08-17T11:57:51.201Z,3.13
2018-08-17T12:00:19.885Z,2.90
2018-08-17T12:02:48.718Z,3.10
2018-08-17T12:05:17.536Z,3.30
2018-08-17T12:07:47.103Z,3.47
2018-08-17T12:10:15.880Z,3.47
2018-08-17T12:12:44.975Z,3.40
2018-08-17T12:15:13.888Z,3.00
2018-08-17T12:17:42.507Z,3.00
2018-08-17T12:20:10.904Z,3.13
2018-08-17T12:22:39.809Z,2.40
2018-08-17T12:25:09.932Z,2.40
2018-08-17T12:27:38.744Z,2.30
2018-08-17T12:30:08.793Z,2.20
2018-08-17T12:32:37.378Z,2.30
2018-08-17T12:35:06.106Z,2.30
2018-08-17T12:37:34.769Z,2.30
2018-08-17T12:40:03.456Z,2.17
2018-08-17T12:42:35.935Z,2.70
2018-08-17T12:45:09.845Z,2.57
2018-08-17T12:47:38.630Z,2.80
2018-08-17T12:50:07.413Z,2.70
2018-08-17T12:52:36.623Z,2.80
2018-08-17T12:55:05.491Z,2.50
2018-08-17T12:57:39.433Z,2.87
2018-08-17T13:00:08.165Z,3.00
2018-08-17T13:02:36.698Z,3.03
2018-08-17T13:05:05.057Z,2.90
2018-08-17T13:07:33.401Z,3.10
2018-08-17T13:10:01.680Z,2.80
2018-08-17T13:12:29.954Z,3.00
2018-08-17T13:14:58.270Z,3.03
2018-08-17T13:17:31.627Z,3.10
2018-08-17T13:20:00.358Z,3.00
2018-08-17T13:22:28.728Z,3.03
2018-08-17T13:24:57.106Z,2.90
2018-08-17T13:27:25.561Z,2.53
2018-08-17T13:29:54.074Z,2.60
2018-08-17T13:32:22.234Z,2.97
2018-08-17T13:34:50.584Z,2.87
2018-08-17T13:37:21.538Z,2.77
2018-08-17T13:39:49.835Z,2.67
2018-08-17T13:42:18.176Z,2.83
2018-08-17T13:44:46.500Z,2.80
2018-08-17T13:47:14.917Z,2.60
2018-08-17T13:49:43.212Z,2.80
2018-08-17T13:52:11.555Z,2.90
2018-08-17T13:54:39.872Z,2.70
2018-08-17T13:57:08.208Z,2.77
2018-08-17T13:59:39.996Z,3.30
2018-08-17T14:02:08.941Z,3.03
2018-08-17T14:04:37.308Z,2.80
2018-08-17T14:07:05.945Z,4.23
2018-08-17T14:09:34.222Z,3.20
2018-08-17T14:12:02.513Z,2.77
2018-08-17T14:14:30.792Z,3.00
2018-08-17T14:16:59.181Z,2.80
2018-08-17T14:19:27.493Z,3.00
2018-08-17T14:21:55.838Z,2.70
2018-08-17T14:24:24.129Z,2.80
2018-08-17T14:26:52.500Z,3.00
2018-08-17T14:29:21.027Z,3.00
2018-08-17T14:31:49.327Z,3.17
2018-08-17T14:34:17.673Z,2.93
2018-08-17T14:36:45.937Z,2.97
2018-08-17T14:39:14.275Z,2.70
2018-08-17T14:41:56.094Z,3.00
2018-08-17T14:44:24.817Z,2.70
2018-08-17T14:46:53.273Z,3.00
2018-08-17T14:49:21.614Z,2.90
2018-08-17T14:51:50.469Z,3.00
2018-08-17T14:54:18.761Z,2.93
2018-08-17T14:56:47.098Z,3.00
2018-08-17T14:59:16.026Z,2.93
2018-08-17T15:01:44.380Z,2.80
2018-08-17T15:04:12.724Z,2.87
2018-08-17T15:06:41.029Z,2.90
2018-08-17T15:09:11.520Z,4.10
2018-08-17T15:11:40.577Z,2.97
2018-08-17T15:14:09.909Z,2.80
2018-08-17T15:16:38.215Z,2.80
2018-08-17T15:19:06.552Z,3.10
2018-08-17T15:21:34.877Z,2.87
2018-08-17T15:24:03.185Z,3.00
2018-08-17T15:26:31.523Z,2.70
2018-08-17T15:28:59.992Z,3.00
2018-08-17T15:31:28.381Z,3.13
2018-08-17T15:33:56.656Z,2.67
2018-08-17T15:36:24.960Z,2.77
2018-08-17T15:38:53.240Z,2.50
2018-08-17T15:41:21.605Z,2.80
2018-08-17T15:43:49.915Z,2.80
2018-08-17T15:46:18.286Z,2.87
2018-08-17T15:48:54.569Z,2.90
2018-08-17T15:51:22.869Z,2.97
2018-08-17T15:53:51.263Z,3.00
2018-08-17T15:56:19.581Z,2.67
2018-08-17T15:58:47.898Z,2.60
2018-08-17T16:01:16.427Z,2.87
2018-08-17T16:03:44.715Z,2.93
2018-08-17T16:06:13.052Z,2.73
2018-08-17T16:08:41.289Z,2.97
2018-08-17T16:11:10.088Z,2.90
2018-08-17T16:13:38.446Z,2.80
2018-08-17T16:16:06.951Z,2.90
2018-08-17T16:18:36.035Z,2.60
2018-08-17T16:21:04.376Z,3.10
2018-08-17T16:23:32.711Z,2.40
2018-08-17T16:26:01.001Z,2.60
2018-08-17T16:28:29.459Z,2.70
2018-08-17T16:30:57.750Z,2.87
2018-08-17T16:33:26.181Z,3.00
2018-08-17T16:35:54.594Z,3.00
2018-08-17T16:38:23.068Z,2.80
2018-08-17T16:40:52.265Z,3.07
2018-08-17T16:43:26.503Z,2.73
2018-08-17T16:45:54.844Z,2.70
2018-08-17T16:48:23.178Z,3.10
2018-08-17T16:50:54.066Z,2.67
2018-08-17T16:53:22.505Z,3.03
2018-08-17T16:55:50.900Z,3.57
2018-08-17T16:58:19.208Z,3.50
2018-08-17T17:00:47.526Z,3.10
2018-08-17T17:03:15.904Z,2.80
2018-08-17T17:05:44.280Z,2.80
2018-08-17T17:08:12.611Z,2.50
2018-08-17T17:10:40.912Z,2.50
2018-08-17T17:13:09.213Z,2.50
2018-08-17T17:15:37.535Z,2.77
2018-08-17T17:18:09.457Z,2.90
2018-08-17T17:20:38.719Z,2.77
2018-08-17T17:23:08.206Z,2.90
2018-08-17T17:25:36.776Z,3.57
2018-08-17T17:28:05.172Z,3.10
2018-08-17T17:30:53.177Z,2.73
2018-08-17T17:33:21.920Z,4.00
2018-08-17T17:35:50.228Z,2.73
2018-08-17T17:38:18.634Z,2.60
2018-08-17T17:40:47.014Z,2.83
2018-08-17T17:43:16.442Z,3.40
2018-08-17T17:45:44.933Z,3.20
2018-08-17T17:48:13.288Z,3.20
2018-08-17T17:50:41.681Z,3.40
2018-08-17T17:53:10.104Z,4.87
2018-08-17T17:55:56.467Z,3.73
2018-08-17T17:58:24.848Z,3.87
2018-08-17T18:00:59.410Z,4.47
2018-08-17T18:03:29.150Z,9.50
2018-08-17T18:06:01.390Z,4.43
2018-08-17T18:08:30.393Z,3.90
2018-08-17T18:10:59.101Z,4.70
2018-08-17T18:13:27.586Z,4.13
2018-08-17T18:15:55.997Z,6.67
2018-08-17T18:18:24.366Z,4.17
2018-08-17T18:20:52.754Z,14.30
2018-08-17T18:23:21.200Z,10.20
2018-08-17T18:25:49.547Z,4.67
2018-08-17T18:28:17.904Z,5.30
2018-08-17T18:30:46.399Z,4.73
2018-08-17T18:33:14.699Z,4.90
2018-08-17T18:35:43.014Z,4.33
2018-08-17T18:38:11.364Z,6.83
2018-08-17T18:40:39.645Z,4.70
2018-08-17T18:43:07.992Z,5.27
2018-08-17T18:45:36.384Z,5.00
2018-08-17T18:48:04.837Z,5.13
2018-08-17T18:50:33.180Z,5.80
2018-08-17T18:53:01.521Z,5.07
2018-08-17T18:55:29.866Z,5.93
2018-08-17T18:57:58.172Z,6.00
2018-08-17T19:00:26.461Z,6.37
2018-08-17T19:02:54.757Z,6.60
2018-08-17T19:05:23.076Z,5.83
2018-08-17T19:07:51.352Z,5.77
2018-08-17T19:10:19.710Z,5.70
2018-08-17T19:12:47.946Z,5.80
2018-08-17T19:15:16.277Z,6.10
2018-08-17T19:17:44.579Z,7.20
2018-08-17T19:20:13.441Z,7.67
2018-08-17T19:22:44.382Z,6.97
2018-08-17T19:25:13.960Z,6.37
2018-08-17T19:27:42.736Z,6.80
2018-08-17T19:30:26.389Z,5.67
2018-08-17T19:32:57.232Z,6.23
2018-08-17T19:35:25.562Z,6.23
2018-08-17T19:37:53.937Z,6.13
2018-08-17T19:40:22.877Z,6.10
2018-08-17T19:42:51.172Z,5.90
2018-08-17T19:45:20.034Z,6.53
2018-08-17T19:47:48.341Z,6.40
2018-08-17T19:50:16.643Z,6.60
2018-08-17T19:52:44.921Z,6.67
2018-08-17T19:55:13.249Z,6.20
2018-08-17T19:57:41.544Z,6.17
2018-08-17T20:00:11.132Z,6.50
2018-08-17T20:02:39.487Z,6.03
2018-08-17T20:05:07.897Z,6.60
2018-08-17T20:07:36.616Z,6.10
2018-08-17T20:10:05.390Z,6.20
2018-08-17T20:12:33.764Z,6.20
2018-08-17T20:15:02.411Z,6.60
2018-08-17T20:17:30.747Z,7.20
2018-08-17T20:19:59.109Z,6.43
2018-08-17T20:22:27.466Z,6.43
2018-08-17T20:24:55.782Z,6.30
2018-08-17T20:27:24.049Z,6.30
2018-08-17T20:29:52.371Z,6.37
2018-08-17T20:32:20.692Z,6.03
2018-08-17T20:34:49.761Z,6.30
2018-08-17T20:37:18.465Z,6.07
2018-08-17T20:39:47.544Z,5.93
2018-08-17T20:42:15.880Z,6.17
2018-08-17T20:44:44.197Z,6.43
2018-08-17T20:47:12.632Z,6.60
2018-08-17T20:49:40.966Z,6.27
2018-08-17T20:52:09.298Z,6.37
2018-08-17T20:54:37.642Z,6.30
2018-08-17T20:57:05.967Z,6.47
2018-08-17T20:59:34.283Z,5.97
2018-08-17T21:02:02.565Z,6.73
2018-08-17T21:04:30.893Z,6.60
2018-08-17T21:06:59.245Z,6.73
2018-08-17T21:09:27.574Z,6.73
2018-08-17T21:11:55.908Z,6.40
2018-08-17T21:14:24.180Z,6.40
2018-08-17T21:16:52.484Z,7.20
2018-08-17T21:19:27.257Z,6.80
2018-08-17T21:21:56.520Z,6.20
2018-08-17T21:24:24.848Z,6.57
2018-08-17T21:26:53.147Z,6.80
2018-08-17T21:29:21.536Z,7.07
2018-08-17T21:31:51.641Z,6.10
2018-08-17T21:34:20.019Z,6.50
2018-08-17T21:36:48.312Z,6.67
2018-08-17T21:39:17.947Z,6.97
2018-08-17T21:41:47.541Z,7.00
2018-08-17T21:44:18.805Z,6.77
2018-08-17T21:46:53.081Z,6.70
2018-08-17T21:49:22.201Z,6.83
2018-08-17T21:51:54.416Z,6.70
2018-08-17T21:54:23.072Z,5.70
2018-08-17T21:56:51.383Z,5.47
2018-08-17T21:59:19.728Z,5.50
2018-08-17T22:01:48.062Z,4.70
2018-08-17T22:04:16.388Z,5.10
2018-08-17T22:06:44.757Z,4.83
2018-08-17T22:09:13.701Z,4.53
2018-08-17T22:11:42.946Z,4.70
2018-08-17T22:14:11.216Z,4.70
2018-08-17T22:16:39.488Z,4.83
2018-08-17T22:19:07.945Z,4.33
2018-08-17T22:21:36.185Z,4.50
2018-08-17T22:24:04.472Z,4.23
2018-08-17T22:26:32.759Z,4.37
2018-08-17T22:29:01.065Z,4.20
2018-08-17T22:31:37.257Z,4.10
2018-08-17T22:34:05.611Z,4.07
2018-08-17T22:36:33.898Z,4.33
2018-08-17T22:39:02.218Z,4.30
2018-08-17T22:41:30.476Z,3.80
2018-08-17T22:43:59.035Z,3.90
2018-08-17T22:46:27.321Z,4.27
2018-08-17T22:48:55.752Z,4.37
2018-08-17T22:51:23.925Z,4.23
2018-08-17T22:53:52.209Z,3.90
2018-08-17T22:56:20.484Z,3.87
2018-08-17T22:58:49.501Z,4.00
2018-08-17T23:01:19.685Z,4.17
2018-08-17T23:03:53.465Z,4.03
2018-08-17T23:06:22.495Z,3.63
2018-08-17T23:08:50.836Z,3.80
2018-08-17T23:11:33.184Z,4.07
2018-08-17T23:14:07.052Z,3.50
2018-08-17T23:16:35.436Z,3.63
2018-08-17T23:19:03.742Z,3.67
2018-08-17T23:21:32.206Z,3.70
2018-08-17T23:24:00.672Z,3.33
2018-08-17T23:26:28.936Z,4.00
2018-08-17T23:28:57.352Z,4.03
2018-08-17T23:31:25.621Z,3.73
2018-08-17T23:33:53.936Z,3.80
2018-08-17T23:36:22.248Z,4.37
2018-08-17T23:38:50.538Z,4.13
2018-08-17T23:41:19.712Z,4.00
2018-08-17T23:43:47.997Z,4.47
2018-08-17T23:46:16.353Z,4.10
2018-08-17T23:48:44.628Z,4.07
2018-08-17T23:51:12.925Z,4.03
2018-08-17T23:53:41.201Z,3.70
2018-08-17T23:56:09.563Z,3.67
2018-08-17T23:58:37.922Z,4.17
